sensor_id;sensor_type;location;lat;lon;timestamp;P1;durP1;ratioP1;P2;durP2;ratioP2
30147;SDS011;16960;49.404;8.248;2023-04-21T00:00:30;2.57;;;2.37;;
30147;SDS011;16960;49.404;8.248;2023-04-21T00:02:57;2.43;;;2.23;;
30147;SDS011;16960;49.404;8.248;2023-04-21T00:05:24;2.20;;;2.00;;
30147;SDS011;16960;49.404;8.248;2023-04-21T00:07:51;2.30;;;2.20;;
30147;SDS011;16960;49.404;8.248;2023-04-21T00:10:18;2.60;;;2.40;;
30147;SDS011;16960;49.404;8.248;2023-04-21T00:12:46;2.50;;;2.30;;
30147;SDS011;16960;49.404;8.248;2023-04-21T00:15:13;2.77;;;2.57;;
30147;SDS011;16960;49.404;8.248;2023-04-21T00:17:40;3.30;;;3.00;;
30147;SDS011;16960;49.404;8.248;2023-04-21T00:20:08;2.53;;;2.33;;
30147;SDS011;16960;49.404;8.248;2023-04-21T00:22:35;2.57;;;2.37;;
30147;SDS011;16960;49.404;8.248;2023-04-21T00:25:02;2.30;;;2.10;;
30147;SDS011;16960;49.404;8.248;2023-04-21T00:27:30;2.40;;;2.20;;
30147;SDS011;16960;49.404;8.248;2023-04-21T00:29:58;2.10;;;2.00;;
30147;SDS011;16960;49.404;8.248;2023-04-21T00:32:25;2.53;;;2.33;;
30147;SDS011;16960;49.404;8.248;2023-04-21T00:34:52;2.90;;;2.70;;
30147;SDS011;16960;49.404;8.248;2023-04-21T00:37:19;2.53;;;2.33;;
30147;SDS011;16960;49.404;8.248;2023-04-21T00:39:46;3.03;;;2.77;;
30147;SDS011;16960;49.404;8.248;2023-04-21T00:42:14;2.80;;;2.60;;
30147;SDS011;16960;49.404;8.248;2023-04-21T00:44:41;2.37;;;2.17;;
30147;SDS011;16960;49.404;8.248;2023-04-21T00:47:09;2.73;;;2.53;;
30147;SDS011;16960;49.404;8.248;2023-04-21T00:49:36;2.40;;;2.20;;
30147;SDS011;16960;49.404;8.248;2023-04-21T00:52:03;2.40;;;2.20;;
30147;SDS011;16960;49.404;8.248;2023-04-21T00:54:31;1.90;;;1.80;;
30147;SDS011;16960;49.404;8.248;2023-04-21T00:57:00;2.87;;;2.67;;
30147;SDS011;16960;49.404;8.248;2023-04-21T00:59:27;2.23;;;2.10;;
30147;SDS011;16960;49.404;8.248;2023-04-21T01:01:54;2.20;;;2.10;;
30147;SDS011;16960;49.404;8.248;2023-04-21T01:04:23;2.30;;;1.87;;
30147;SDS011;16960;49.404;8.248;2023-04-21T01:06:50;2.30;;;2.10;;
30147;SDS011;16960;49.404;8.248;2023-04-21T01:09:17;3.10;;;2.80;;
30147;SDS011;16960;49.404;8.248;2023-04-21T01:11:58;2.70;;;2.50;;
30147;SDS011;16960;49.404;8.248;2023-04-21T01:14:27;2.33;;;2.13;;
30147;SDS011;16960;49.404;8.248;2023-04-21T01:16:54;2.10;;;2.00;;
30147;SDS011;16960;49.404;8.248;2023-04-21T01:19:23;2.60;;;2.40;;
30147;SDS011;16960;49.404;8.248;2023-04-21T01:21:53;2.57;;;2.37;;
30147;SDS011;16960;49.404;8.248;2023-04-21T01:24:21;2.03;;;1.93;;
30147;SDS011;16960;49.404;8.248;2023-04-21T01:26:49;2.40;;;2.20;;
30147;SDS011;16960;49.404;8.248;2023-04-21T01:29:16;2.70;;;2.50;;
30147;SDS011;16960;49.404;8.248;2023-04-21T01:31:43;2.63;;;2.43;;
30147;SDS011;16960;49.404;8.248;2023-04-21T01:34:12;3.10;;;2.60;;
30147;SDS011;16960;49.404;8.248;2023-04-21T01:36:40;2.57;;;2.37;;
30147;SDS011;16960;49.404;8.248;2023-04-21T01:39:08;2.10;;;2.00;;
30147;SDS011;16960;49.404;8.248;2023-04-21T01:41:35;2.13;;;2.03;;
30147;SDS011;16960;49.404;8.248;2023-04-21T01:44:02;2.73;;;2.53;;
30147;SDS011;16960;49.404;8.248;2023-04-21T01:46:29;2.30;;;2.20;;
30147;SDS011;16960;49.404;8.248;2023-04-21T01:48:56;2.60;;;2.40;;
30147;SDS011;16960;49.404;8.248;2023-04-21T01:51:23;2.00;;;1.90;;
30147;SDS011;16960;49.404;8.248;2023-04-21T01:53:51;2.13;;;2.03;;
30147;SDS011;16960;49.404;8.248;2023-04-21T01:56:19;2.80;;;2.60;;
30147;SDS011;16960;49.404;8.248;2023-04-21T01:58:46;2.67;;;2.47;;
30147;SDS011;16960;49.404;8.248;2023-04-21T02:01:13;2.50;;;1.87;;
30147;SDS011;16960;49.404;8.248;2023-04-21T02:03:40;2.57;;;2.37;;
30147;SDS011;16960;49.404;8.248;2023-04-21T02:06:10;2.03;;;1.93;;
30147;SDS011;16960;49.404;8.248;2023-04-21T02:08:38;1.90;;;1.80;;
30147;SDS011;16960;49.404;8.248;2023-04-21T02:11:05;2.40;;;2.20;;
30147;SDS011;16960;49.404;8.248;2023-04-21T02:13:33;2.40;;;2.30;;
30147;SDS011;16960;49.404;8.248;2023-04-21T02:16:00;3.00;;;2.10;;
30147;SDS011;16960;49.404;8.248;2023-04-21T02:18:27;2.33;;;2.13;;
30147;SDS011;16960;49.404;8.248;2023-04-21T02:20:54;2.50;;;2.30;;
30147;SDS011;16960;49.404;8.248;2023-04-21T02:23:21;2.20;;;2.10;;
30147;SDS011;16960;49.404;8.248;2023-04-21T02:25:48;2.30;;;2.10;;
30147;SDS011;16960;49.404;8.248;2023-04-21T02:28:15;2.13;;;2.03;;
30147;SDS011;16960;49.404;8.248;2023-04-21T02:30:43;2.27;;;2.10;;
30147;SDS011;16960;49.404;8.248;2023-04-21T02:33:10;2.47;;;2.27;;
30147;SDS011;16960;49.404;8.248;2023-04-21T02:35:37;2.30;;;2.17;;
30147;SDS011;16960;49.404;8.248;2023-04-21T02:38:04;2.70;;;2.50;;
30147;SDS011;16960;49.404;8.248;2023-04-21T02:40:32;2.60;;;2.40;;
30147;SDS011;16960;49.404;8.248;2023-04-21T02:42:59;2.70;;;2.50;;
30147;SDS011;16960;49.404;8.248;2023-04-21T02:45:27;2.73;;;2.20;;
30147;SDS011;16960;49.404;8.248;2023-04-21T02:47:55;2.73;;;2.53;;
30147;SDS011;16960;49.404;8.248;2023-04-21T02:50:23;1.90;;;1.80;;
30147;SDS011;16960;49.404;8.248;2023-04-21T02:52:50;2.50;;;2.30;;
30147;SDS011;16960;49.404;8.248;2023-04-21T02:55:17;2.33;;;2.13;;
30147;SDS011;16960;49.404;8.248;2023-04-21T02:57:44;2.40;;;2.20;;
30147;SDS011;16960;49.404;8.248;2023-04-21T03:00:11;2.10;;;2.00;;
30147;SDS011;16960;49.404;8.248;2023-04-21T03:02:38;2.17;;;2.03;;
30147;SDS011;16960;49.404;8.248;2023-04-21T03:05:07;2.60;;;2.27;;
30147;SDS011;16960;49.404;8.248;2023-04-21T03:07:34;2.27;;;2.07;;
30147;SDS011;16960;49.404;8.248;2023-04-21T03:10:01;2.23;;;2.13;;
30147;SDS011;16960;49.404;8.248;2023-04-21T03:12:28;2.20;;;2.10;;
30147;SDS011;16960;49.404;8.248;2023-04-21T03:14:55;2.80;;;2.60;;
30147;SDS011;16960;49.404;8.248;2023-04-21T03:17:23;2.10;;;2.00;;
30147;SDS011;16960;49.404;8.248;2023-04-21T03:19:49;2.43;;;2.23;;
30147;SDS011;16960;49.404;8.248;2023-04-21T03:22:18;2.50;;;2.30;;
30147;SDS011;16960;49.404;8.248;2023-04-21T03:24:45;1.90;;;1.80;;
30147;SDS011;16960;49.404;8.248;2023-04-21T03:27:11;2.23;;;2.03;;
30147;SDS011;16960;49.404;8.248;2023-04-21T03:29:38;1.97;;;1.87;;
30147;SDS011;16960;49.404;8.248;2023-04-21T03:32:05;2.73;;;2.53;;
30147;SDS011;16960;49.404;8.248;2023-04-21T03:34:32;1.83;;;1.73;;
30147;SDS011;16960;49.404;8.248;2023-04-21T03:36:59;2.40;;;2.20;;
30147;SDS011;16960;49.404;8.248;2023-04-21T03:39:27;2.30;;;2.10;;
30147;SDS011;16960;49.404;8.248;2023-04-21T03:41:55;2.40;;;2.20;;
30147;SDS011;16960;49.404;8.248;2023-04-21T03:44:24;3.20;;;2.90;;
30147;SDS011;16960;49.404;8.248;2023-04-21T03:46:52;2.10;;;2.00;;
30147;SDS011;16960;49.404;8.248;2023-04-21T03:49:19;2.57;;;2.40;;
30147;SDS011;16960;49.404;8.248;2023-04-21T03:51:46;2.63;;;2.43;;
30147;SDS011;16960;49.404;8.248;2023-04-21T03:54:13;2.53;;;2.33;;
30147;SDS011;16960;49.404;8.248;2023-04-21T03:56:41;2.20;;;2.10;;
30147;SDS011;16960;49.404;8.248;2023-04-21T03:59:08;2.60;;;2.40;;
30147;SDS011;16960;49.404;8.248;2023-04-21T04:01:35;2.30;;;2.10;;
30147;SDS011;16960;49.404;8.248;2023-04-21T04:04:02;2.60;;;2.40;;
30147;SDS011;16960;49.404;8.248;2023-04-21T04:06:29;2.40;;;2.23;;
30147;SDS011;16960;49.404;8.248;2023-04-21T04:08:57;2.73;;;2.50;;
30147;SDS011;16960;49.404;8.248;2023-04-21T04:11:26;2.63;;;2.43;;
30147;SDS011;16960;49.404;8.248;2023-04-21T04:13:54;2.00;;;1.90;;
30147;SDS011;16960;49.404;8.248;2023-04-21T04:16:21;1.70;;;1.60;;
30147;SDS011;16960;49.404;8.248;2023-04-21T04:18:49;2.00;;;1.90;;
30147;SDS011;16960;49.404;8.248;2023-04-21T04:21:16;1.90;;;1.80;;
30147;SDS011;16960;49.404;8.248;2023-04-21T04:23:43;2.43;;;2.23;;
30147;SDS011;16960;49.404;8.248;2023-04-21T04:26:10;1.87;;;1.77;;
30147;SDS011;16960;49.404;8.248;2023-04-21T04:28:37;1.77;;;1.67;;
30147;SDS011;16960;49.404;8.248;2023-04-21T04:31:05;2.23;;;2.10;;
30147;SDS011;16960;49.404;8.248;2023-04-21T04:33:32;2.20;;;2.00;;
30147;SDS011;16960;49.404;8.248;2023-04-21T04:35:59;1.87;;;1.77;;
30147;SDS011;16960;49.404;8.248;2023-04-21T04:38:26;1.90;;;1.70;;
30147;SDS011;16960;49.404;8.248;2023-04-21T04:40:54;1.87;;;1.77;;
30147;SDS011;16960;49.404;8.248;2023-04-21T04:43:23;2.17;;;2.00;;
30147;SDS011;16960;49.404;8.248;2023-04-21T04:45:50;2.00;;;1.90;;
30147;SDS011;16960;49.404;8.248;2023-04-21T04:48:18;1.90;;;1.80;;
30147;SDS011;16960;49.404;8.248;2023-04-21T04:50:45;2.27;;;2.13;;
30147;SDS011;16960;49.404;8.248;2023-04-21T04:53:12;2.50;;;2.30;;
30147;SDS011;16960;49.404;8.248;2023-04-21T04:55:39;2.00;;;1.90;;
30147;SDS011;16960;49.404;8.248;2023-04-21T04:58:06;1.83;;;1.73;;
30147;SDS011;16960;49.404;8.248;2023-04-21T05:00:33;2.27;;;2.00;;
30147;SDS011;16960;49.404;8.248;2023-04-21T05:03:01;1.70;;;1.60;;
30147;SDS011;16960;49.404;8.248;2023-04-21T05:05:29;2.00;;;1.90;;
30147;SDS011;16960;49.404;8.248;2023-04-21T05:07:56;2.03;;;1.90;;
30147;SDS011;16960;49.404;8.248;2023-04-21T05:10:23;2.30;;;2.20;;
30147;SDS011;16960;49.404;8.248;2023-04-21T05:12:50;2.53;;;1.97;;
30147;SDS011;16960;49.404;8.248;2023-04-21T05:15:17;1.97;;;1.87;;
30147;SDS011;16960;49.404;8.248;2023-04-21T05:17:44;2.00;;;1.57;;
30147;SDS011;16960;49.404;8.248;2023-04-21T05:20:11;2.13;;;2.03;;
30147;SDS011;16960;49.404;8.248;2023-04-21T05:22:39;2.07;;;1.97;;
30147;SDS011;16960;49.404;8.248;2023-04-21T05:25:06;2.30;;;2.10;;
30147;SDS011;16960;49.404;8.248;2023-04-21T05:27:36;2.53;;;2.33;;
30147;SDS011;16960;49.404;8.248;2023-04-21T05:30:03;2.00;;;1.90;;
30147;SDS011;16960;49.404;8.248;2023-04-21T05:32:30;2.10;;;2.00;;
30147;SDS011;16960;49.404;8.248;2023-04-21T05:34:57;2.00;;;1.90;;
30147;SDS011;16960;49.404;8.248;2023-04-21T05:37:24;2.40;;;2.20;;
30147;SDS011;16960;49.404;8.248;2023-04-21T05:39:53;2.13;;;2.03;;
30147;SDS011;16960;49.404;8.248;2023-04-21T05:42:20;1.80;;;1.70;;
30147;SDS011;16960;49.404;8.248;2023-04-21T05:44:47;2.10;;;2.00;;
30147;SDS011;16960;49.404;8.248;2023-04-21T05:47:14;2.40;;;2.20;;
30147;SDS011;16960;49.404;8.248;2023-04-21T05:49:41;2.60;;;2.40;;
30147;SDS011;16960;49.404;8.248;2023-04-21T05:52:13;2.00;;;1.90;;
30147;SDS011;16960;49.404;8.248;2023-04-21T05:54:41;2.00;;;1.90;;
30147;SDS011;16960;49.404;8.248;2023-04-21T05:57:09;2.43;;;2.23;;
30147;SDS011;16960;49.404;8.248;2023-04-21T05:59:36;2.33;;;2.20;;
30147;SDS011;16960;49.404;8.248;2023-04-21T06:02:03;2.10;;;2.00;;
30147;SDS011;16960;49.404;8.248;2023-04-21T06:04:30;2.20;;;2.10;;
30147;SDS011;16960;49.404;8.248;2023-04-21T06:06:57;2.53;;;2.33;;
30147;SDS011;16960;49.404;8.248;2023-04-21T06:09:30;1.90;;;1.80;;
30147;SDS011;16960;49.404;8.248;2023-04-21T06:11:57;2.60;;;2.40;;
30147;SDS011;16960;49.404;8.248;2023-04-21T06:14:25;2.33;;;2.13;;
30147;SDS011;16960;49.404;8.248;2023-04-21T06:16:52;2.60;;;2.40;;
30147;SDS011;16960;49.404;8.248;2023-04-21T06:19:19;2.50;;;2.30;;
30147;SDS011;16960;49.404;8.248;2023-04-21T06:21:46;3.50;;;2.50;;
30147;SDS011;16960;49.404;8.248;2023-04-21T06:24:13;1.97;;;1.83;;
30147;SDS011;16960;49.404;8.248;2023-04-21T06:26:40;2.50;;;2.30;;
30147;SDS011;16960;49.404;8.248;2023-04-21T06:29:07;2.13;;;1.93;;
30147;SDS011;16960;49.404;8.248;2023-04-21T06:31:35;3.80;;;2.30;;
30147;SDS011;16960;49.404;8.248;2023-04-21T06:34:02;2.20;;;2.10;;
30147;SDS011;16960;49.404;8.248;2023-04-21T06:36:29;2.50;;;2.30;;
30147;SDS011;16960;49.404;8.248;2023-04-21T06:38:57;2.17;;;1.97;;
30147;SDS011;16960;49.404;8.248;2023-04-21T06:41:24;2.37;;;2.20;;
30147;SDS011;16960;49.404;8.248;2023-04-21T06:43:51;2.07;;;1.93;;
30147;SDS011;16960;49.404;8.248;2023-04-21T06:46:18;2.40;;;2.30;;
30147;SDS011;16960;49.404;8.248;2023-04-21T06:48:46;2.27;;;2.07;;
30147;SDS011;16960;49.404;8.248;2023-04-21T06:51:13;2.90;;;2.30;;
30147;SDS011;16960;49.404;8.248;2023-04-21T06:53:40;2.50;;;2.30;;
30147;SDS011;16960;49.404;8.248;2023-04-21T06:56:07;3.60;;;2.13;;
30147;SDS011;16960;49.404;8.248;2023-04-21T06:58:35;2.57;;;2.37;;
30147;SDS011;16960;49.404;8.248;2023-04-21T07:01:02;2.70;;;2.20;;
30147;SDS011;16960;49.404;8.248;2023-04-21T07:03:29;3.83;;;2.47;;
30147;SDS011;16960;49.404;8.248;2023-04-21T07:05:57;4.30;;;2.30;;
30147;SDS011;16960;49.404;8.248;2023-04-21T07:08:24;4.70;;;2.00;;
30147;SDS011;16960;49.404;8.248;2023-04-21T07:10:51;5.17;;;2.37;;
30147;SDS011;16960;49.404;8.248;2023-04-21T07:13:18;3.23;;;2.50;;
30147;SDS011;16960;49.404;8.248;2023-04-21T07:15:45;2.60;;;2.40;;
30147;SDS011;16960;49.404;8.248;2023-04-21T07:18:12;2.30;;;2.10;;
30147;SDS011;16960;49.404;8.248;2023-04-21T07:20:39;2.30;;;2.10;;
30147;SDS011;16960;49.404;8.248;2023-04-21T07:23:08;5.30;;;2.80;;
30147;SDS011;16960;49.404;8.248;2023-04-21T07:25:35;2.70;;;2.50;;
30147;SDS011;16960;49.404;8.248;2023-04-21T07:28:02;3.30;;;3.00;;
30147;SDS011;16960;49.404;8.248;2023-04-21T07:30:30;2.63;;;2.43;;
30147;SDS011;16960;49.404;8.248;2023-04-21T07:32:57;2.77;;;2.57;;
30147;SDS011;16960;49.404;8.248;2023-04-21T07:35:24;2.33;;;2.13;;
30147;SDS011;16960;49.404;8.248;2023-04-21T07:37:51;2.90;;;2.53;;
30147;SDS011;16960;49.404;8.248;2023-04-21T07:40:20;3.30;;;3.10;;
30147;SDS011;16960;49.404;8.248;2023-04-21T07:42:47;2.47;;;2.27;;
30147;SDS011;16960;49.404;8.248;2023-04-21T07:45:14;2.30;;;2.10;;
30147;SDS011;16960;49.404;8.248;2023-04-21T07:47:41;3.60;;;3.17;;
30147;SDS011;16960;49.404;8.248;2023-04-21T07:50:08;4.53;;;4.00;;
30147;SDS011;16960;49.404;8.248;2023-04-21T07:52:35;3.63;;;3.33;;
30147;SDS011;16960;49.404;8.248;2023-04-21T07:55:02;3.07;;;2.87;;
30147;SDS011;16960;49.404;8.248;2023-04-21T07:57:31;3.33;;;3.03;;
30147;SDS011;16960;49.404;8.248;2023-04-21T08:00:02;4.03;;;2.97;;
30147;SDS011;16960;49.404;8.248;2023-04-21T08:02:30;3.20;;;2.90;;
30147;SDS011;16960;49.404;8.248;2023-04-21T08:04:57;3.23;;;2.53;;
30147;SDS011;16960;49.404;8.248;2023-04-21T08:07:24;3.90;;;3.20;;
30147;SDS011;16960;49.404;8.248;2023-04-21T08:09:51;3.20;;;2.90;;
30147;SDS011;16960;49.404;8.248;2023-04-21T08:12:18;3.40;;;3.10;;
30147;SDS011;16960;49.404;8.248;2023-04-21T08:14:46;4.10;;;3.10;;
30147;SDS011;16960;49.404;8.248;2023-04-21T08:17:13;2.90;;;2.70;;
30147;SDS011;16960;49.404;8.248;2023-04-21T08:19:40;3.87;;;3.47;;
30147;SDS011;16960;49.404;8.248;2023-04-21T08:22:07;3.00;;;2.80;;
30147;SDS011;16960;49.404;8.248;2023-04-21T08:24:34;3.23;;;2.73;;
30147;SDS011;16960;49.404;8.248;2023-04-21T08:27:01;3.40;;;2.97;;
30147;SDS011;16960;49.404;8.248;2023-04-21T08:29:28;3.07;;;2.80;;
30147;SDS011;16960;49.404;8.248;2023-04-21T08:31:57;3.30;;;3.00;;
30147;SDS011;16960;49.404;8.248;2023-04-21T08:34:24;4.10;;;2.80;;
30147;SDS011;16960;49.404;8.248;2023-04-21T08:36:51;3.80;;;3.20;;
30147;SDS011;16960;49.404;8.248;2023-04-21T08:39:19;3.27;;;2.97;;
30147;SDS011;16960;49.404;8.248;2023-04-21T08:41:46;3.00;;;2.80;;
30147;SDS011;16960;49.404;8.248;2023-04-21T08:44:13;3.13;;;2.70;;
30147;SDS011;16960;49.404;8.248;2023-04-21T08:46:42;2.90;;;2.70;;
30147;SDS011;16960;49.404;8.248;2023-04-21T08:49:12;4.07;;;2.83;;
30147;SDS011;16960;49.404;8.248;2023-04-21T08:51:43;2.97;;;2.77;;
30147;SDS011;16960;49.404;8.248;2023-04-21T08:54:11;2.83;;;2.63;;
30147;SDS011;16960;49.404;8.248;2023-04-21T08:56:38;2.97;;;2.70;;
30147;SDS011;16960;49.404;8.248;2023-04-21T08:59:05;2.93;;;2.73;;
30147;SDS011;16960;49.404;8.248;2023-04-21T09:01:32;3.40;;;3.10;;
30147;SDS011;16960;49.404;8.248;2023-04-21T09:06:55;2.80;;;2.60;;
30147;SDS011;16960;49.404;8.248;2023-04-21T09:09:21;6.27;;;2.83;;
30147;SDS011;16960;49.404;8.248;2023-04-21T09:11:53;3.10;;;2.90;;
30147;SDS011;16960;49.404;8.248;2023-04-21T09:14:21;2.90;;;2.50;;
30147;SDS011;16960;49.404;8.248;2023-04-21T09:16:58;2.70;;;2.50;;
30147;SDS011;16960;49.404;8.248;2023-04-21T09:19:26;2.43;;;2.23;;
30147;SDS011;16960;49.404;8.248;2023-04-21T09:21:54;2.97;;;2.77;;
30147;SDS011;16960;49.404;8.248;2023-04-21T09:24:21;2.87;;;2.67;;
30147;SDS011;16960;49.404;8.248;2023-04-21T09:26:49;3.63;;;3.17;;
30147;SDS011;16960;49.404;8.248;2023-04-21T09:29:17;3.10;;;2.50;;
30147;SDS011;16960;49.404;8.248;2023-04-21T09:31:47;3.00;;;2.77;;
30147;SDS011;16960;49.404;8.248;2023-04-21T09:34:16;2.83;;;2.63;;
30147;SDS011;16960;49.404;8.248;2023-04-21T09:36:44;3.80;;;2.70;;
30147;SDS011;16960;49.404;8.248;2023-04-21T09:39:13;2.60;;;2.40;;
30147;SDS011;16960;49.404;8.248;2023-04-21T09:41:40;2.70;;;2.50;;
30147;SDS011;16960;49.404;8.248;2023-04-21T09:44:09;3.10;;;2.83;;
30147;SDS011;16960;49.404;8.248;2023-04-21T09:46:36;2.67;;;2.47;;
30147;SDS011;16960;49.404;8.248;2023-04-21T09:49:03;4.43;;;2.30;;
30147;SDS011;16960;49.404;8.248;2023-04-21T09:51:31;3.00;;;2.80;;
30147;SDS011;16960;49.404;8.248;2023-04-21T09:53:58;3.07;;;2.60;;
30147;SDS011;16960;49.404;8.248;2023-04-21T09:56:31;2.33;;;2.23;;
30147;SDS011;16960;49.404;8.248;2023-04-21T09:59:00;3.37;;;3.07;;
30147;SDS011;16960;49.404;8.248;2023-04-21T10:01:32;2.90;;;2.70;;
30147;SDS011;16960;49.404;8.248;2023-04-21T10:04:02;2.63;;;2.50;;
30147;SDS011;16960;49.404;8.248;2023-04-21T10:06:30;4.00;;;2.50;;
30147;SDS011;16960;49.404;8.248;2023-04-21T10:08:57;2.93;;;2.73;;
30147;SDS011;16960;49.404;8.248;2023-04-21T10:11:25;2.40;;;2.20;;
30147;SDS011;16960;49.404;8.248;2023-04-21T10:13:53;2.90;;;2.70;;
30147;SDS011;16960;49.404;8.248;2023-04-21T10:16:20;2.43;;;2.23;;
30147;SDS011;16960;49.404;8.248;2023-04-21T10:18:48;2.43;;;2.33;;
30147;SDS011;16960;49.404;8.248;2023-04-21T10:21:16;3.00;;;2.63;;
30147;SDS011;16960;49.404;8.248;2023-04-21T10:23:46;2.13;;;2.00;;
30147;SDS011;16960;49.404;8.248;2023-04-21T10:26:15;3.00;;;2.53;;
30147;SDS011;16960;49.404;8.248;2023-04-21T10:28:45;3.07;;;2.70;;
30147;SDS011;16960;49.404;8.248;2023-04-21T10:31:22;2.60;;;2.40;;
30147;SDS011;16960;49.404;8.248;2023-04-21T10:37:09;2.93;;;2.73;;
30147;SDS011;16960;49.404;8.248;2023-04-21T10:42:28;3.07;;;2.80;;
30147;SDS011;16960;49.404;8.248;2023-04-21T10:45:06;3.30;;;3.00;;
30147;SDS011;16960;49.404;8.248;2023-04-21T10:47:37;3.80;;;3.50;;
30147;SDS011;16960;49.404;8.248;2023-04-21T10:50:15;3.40;;;2.57;;
30147;SDS011;16960;49.404;8.248;2023-04-21T10:52:54;3.57;;;3.27;;
30147;SDS011;16960;49.404;8.248;2023-04-21T10:55:26;2.77;;;2.57;;
30147;SDS011;16960;49.404;8.248;2023-04-21T10:57:54;3.33;;;2.87;;
30147;SDS011;16960;49.404;8.248;2023-04-21T11:00:23;3.23;;;2.93;;
30147;SDS011;16960;49.404;8.248;2023-04-21T11:02:58;4.00;;;3.07;;
30147;SDS011;16960;49.404;8.248;2023-04-21T11:05:30;3.60;;;3.30;;
30147;SDS011;16960;49.404;8.248;2023-04-21T11:08:07;4.23;;;3.70;;
30147;SDS011;16960;49.404;8.248;2023-04-21T11:10:45;3.50;;;3.20;;
30147;SDS011;16960;49.404;8.248;2023-04-21T11:13:15;3.77;;;3.00;;
30147;SDS011;16960;49.404;8.248;2023-04-21T11:15:54;3.97;;;3.63;;
30147;SDS011;16960;49.404;8.248;2023-04-21T11:18:31;4.20;;;3.50;;
30147;SDS011;16960;49.404;8.248;2023-04-21T11:21:05;4.20;;;3.30;;
30147;SDS011;16960;49.404;8.248;2023-04-21T11:23:33;3.77;;;3.40;;
30147;SDS011;16960;49.404;8.248;2023-04-21T11:26:00;4.30;;;3.63;;
30147;SDS011;16960;49.404;8.248;2023-04-21T11:28:27;4.40;;;4.00;;
30147;SDS011;16960;49.404;8.248;2023-04-21T11:30:54;7.17;;;4.00;;
30147;SDS011;16960;49.404;8.248;2023-04-21T11:33:21;5.80;;;4.03;;
30147;SDS011;16960;49.404;8.248;2023-04-21T11:35:49;3.37;;;3.07;;
30147;SDS011;16960;49.404;8.248;2023-04-21T11:38:22;4.30;;;3.70;;
30147;SDS011;16960;49.404;8.248;2023-04-21T11:40:50;3.37;;;3.07;;
30147;SDS011;16960;49.404;8.248;2023-04-21T11:43:19;8.00;;;4.67;;
30147;SDS011;16960;49.404;8.248;2023-04-21T11:45:47;5.70;;;4.30;;
30147;SDS011;16960;49.404;8.248;2023-04-21T11:48:15;3.97;;;2.83;;
30147;SDS011;16960;49.404;8.248;2023-04-21T11:50:45;4.40;;;4.00;;
30147;SDS011;16960;49.404;8.248;2023-04-21T11:53:14;4.83;;;4.20;;
30147;SDS011;16960;49.404;8.248;2023-04-21T11:55:42;4.53;;;4.10;;
30147;SDS011;16960;49.404;8.248;2023-04-21T11:58:10;5.60;;;4.27;;
30147;SDS011;16960;49.404;8.248;2023-04-21T12:00:40;4.97;;;4.50;;
30147;SDS011;16960;49.404;8.248;2023-04-21T12:03:10;6.27;;;4.63;;
30147;SDS011;16960;49.404;8.248;2023-04-21T12:05:38;7.63;;;4.50;;
30147;SDS011;16960;49.404;8.248;2023-04-21T12:08:05;8.03;;;4.80;;
30147;SDS011;16960;49.404;8.248;2023-04-21T12:10:42;4.60;;;4.20;;
30147;SDS011;16960;49.404;8.248;2023-04-21T12:13:10;4.70;;;4.30;;
30147;SDS011;16960;49.404;8.248;2023-04-21T12:15:37;5.37;;;4.87;;
30147;SDS011;16960;49.404;8.248;2023-04-21T12:18:04;6.17;;;4.13;;
30147;SDS011;16960;49.404;8.248;2023-04-21T12:20:38;6.23;;;4.57;;
30147;SDS011;16960;49.404;8.248;2023-04-21T12:23:14;5.13;;;4.63;;
30147;SDS011;16960;49.404;8.248;2023-04-21T12:25:43;7.23;;;4.70;;
30147;SDS011;16960;49.404;8.248;2023-04-21T12:28:11;5.33;;;4.83;;
30147;SDS011;16960;49.404;8.248;2023-04-21T12:30:40;5.10;;;4.60;;
30147;SDS011;16960;49.404;8.248;2023-04-21T12:33:07;4.60;;;4.20;;
30147;SDS011;16960;49.404;8.248;2023-04-21T12:35:34;5.27;;;4.77;;
30147;SDS011;16960;49.404;8.248;2023-04-21T12:38:01;5.83;;;5.00;;
30147;SDS011;16960;49.404;8.248;2023-04-21T12:40:28;5.40;;;4.90;;
30147;SDS011;16960;49.404;8.248;2023-04-21T12:42:56;7.33;;;4.23;;
30147;SDS011;16960;49.404;8.248;2023-04-21T12:45:23;5.10;;;4.53;;
30147;SDS011;16960;49.404;8.248;2023-04-21T12:47:50;4.63;;;4.10;;
30147;SDS011;16960;49.404;8.248;2023-04-21T12:50:19;7.20;;;4.63;;
30147;SDS011;16960;49.404;8.248;2023-04-21T12:52:47;4.70;;;4.30;;
30147;SDS011;16960;49.404;8.248;2023-04-21T12:55:15;4.77;;;4.30;;
30147;SDS011;16960;49.404;8.248;2023-04-21T12:57:43;5.40;;;4.20;;
30147;SDS011;16960;49.404;8.248;2023-04-21T13:00:12;5.83;;;4.30;;
30147;SDS011;16960;49.404;8.248;2023-04-21T13:02:40;5.90;;;4.60;;
30147;SDS011;16960;49.404;8.248;2023-04-21T13:05:07;5.17;;;4.67;;
30147;SDS011;16960;49.404;8.248;2023-04-21T13:07:36;5.43;;;4.93;;
30147;SDS011;16960;49.404;8.248;2023-04-21T13:10:04;4.90;;;4.50;;
30147;SDS011;16960;49.404;8.248;2023-04-21T13:12:32;5.23;;;4.70;;
30147;SDS011;16960;49.404;8.248;2023-04-21T13:14:59;4.70;;;4.30;;
30147;SDS011;16960;49.404;8.248;2023-04-21T13:17:28;4.90;;;4.40;;
30147;SDS011;16960;49.404;8.248;2023-04-21T13:19:55;5.03;;;4.53;;
30147;SDS011;16960;49.404;8.248;2023-04-21T13:22:22;4.70;;;4.30;;
30147;SDS011;16960;49.404;8.248;2023-04-21T13:24:49;5.27;;;4.63;;
30147;SDS011;16960;49.404;8.248;2023-04-21T13:27:16;4.93;;;4.43;;
30147;SDS011;16960;49.404;8.248;2023-04-21T13:29:43;5.00;;;4.60;;
30147;SDS011;16960;49.404;8.248;2023-04-21T13:32:11;6.90;;;5.17;;
30147;SDS011;16960;49.404;8.248;2023-04-21T13:34:40;5.13;;;4.73;;
30147;SDS011;16960;49.404;8.248;2023-04-21T13:37:06;4.77;;;4.37;;
30147;SDS011;16960;49.404;8.248;2023-04-21T13:39:36;5.83;;;5.17;;
30147;SDS011;16960;49.404;8.248;2023-04-21T13:42:04;6.73;;;4.70;;
30147;SDS011;16960;49.404;8.248;2023-04-21T13:44:31;5.60;;;5.07;;
30147;SDS011;16960;49.404;8.248;2023-04-21T13:46:58;5.07;;;4.57;;
30147;SDS011;16960;49.404;8.248;2023-04-21T13:49:25;4.80;;;4.40;;
30147;SDS011;16960;49.404;8.248;2023-04-21T13:51:54;5.20;;;4.70;;
30147;SDS011;16960;49.404;8.248;2023-04-21T13:54:21;5.33;;;4.53;;
30147;SDS011;16960;49.404;8.248;2023-04-21T13:56:48;5.10;;;4.70;;
30147;SDS011;16960;49.404;8.248;2023-04-21T13:59:15;5.50;;;5.03;;
30147;SDS011;16960;49.404;8.248;2023-04-21T14:01:42;5.30;;;4.70;;
30147;SDS011;16960;49.404;8.248;2023-04-21T14:04:09;6.17;;;5.67;;
30147;SDS011;16960;49.404;8.248;2023-04-21T14:06:36;6.50;;;5.90;;
30147;SDS011;16960;49.404;8.248;2023-04-21T14:09:04;5.53;;;5.03;;
30147;SDS011;16960;49.404;8.248;2023-04-21T14:11:33;5.90;;;5.23;;
30147;SDS011;16960;49.404;8.248;2023-04-21T14:14:00;6.27;;;5.67;;
30147;SDS011;16960;49.404;8.248;2023-04-21T14:16:27;6.10;;;5.60;;
30147;SDS011;16960;49.404;8.248;2023-04-21T14:18:54;8.83;;;6.27;;
30147;SDS011;16960;49.404;8.248;2023-04-21T14:21:21;6.83;;;6.23;;
30147;SDS011;16960;49.404;8.248;2023-04-21T14:23:48;5.70;;;5.30;;
30147;SDS011;16960;49.404;8.248;2023-04-21T14:26:17;6.00;;;5.50;;
30147;SDS011;16960;49.404;8.248;2023-04-21T14:28:44;6.47;;;5.80;;
30147;SDS011;16960;49.404;8.248;2023-04-21T14:31:11;6.17;;;5.67;;
30147;SDS011;16960;49.404;8.248;2023-04-21T14:33:38;6.60;;;6.00;;
30147;SDS011;16960;49.404;8.248;2023-04-21T14:36:05;7.23;;;6.63;;
30147;SDS011;16960;49.404;8.248;2023-04-21T14:38:32;6.17;;;5.67;;
30147;SDS011;16960;49.404;8.248;2023-04-21T14:40:59;7.20;;;6.60;;
30147;SDS011;16960;49.404;8.248;2023-04-21T14:43:28;7.00;;;6.40;;
30147;SDS011;16960;49.404;8.248;2023-04-21T14:45:56;6.83;;;6.23;;
30147;SDS011;16960;49.404;8.248;2023-04-21T14:48:23;5.80;;;5.40;;
30147;SDS011;16960;49.404;8.248;2023-04-21T14:50:51;6.37;;;5.83;;
30147;SDS011;16960;49.404;8.248;2023-04-21T14:53:18;8.20;;;6.33;;
30147;SDS011;16960;49.404;8.248;2023-04-21T14:55:45;6.23;;;5.73;;
30147;SDS011;16960;49.404;8.248;2023-04-21T14:58:12;7.00;;;6.40;;
30147;SDS011;16960;49.404;8.248;2023-04-21T15:00:40;7.50;;;6.90;;